Time;durP1;ratioP1;P1;durP2;ratioP2;P2;SDS_P1;SDS_P2;PMS_P1;PMS_P2;Temp;Humidity;BMP_temperature;BMP_pressure;BME280_temperature;BME280_humidity;BME280_pressure;Samples;Min_cycle;Max_cycle;Signal;HPM_P1;HPM_P2
2023/10/04 00:00:14;;;;;;;14.23;2.83;;;;;;;11.54;100.00;101493.59;4945693;29;20384;-50
2023/10/04 00:02:43;;;;;;;12.77;3.00;;;;;;;11.51;100.00;101489.19;4947909;28;20201;-49
2023/10/04 00:05:10;;;;;;;12.32;2.63;;;;;;;11.52;100.00;101509.75;4945949;29;20560;-49
2023/10/04 00:07:36;;;;;;;14.98;2.63;;;;;;;11.57;100.00;101508.72;4949906;28;20183;-49
2023/10/04 00:10:04;;;;;;;10.38;2.28;;;;;;;11.58;100.00;101503.31;4943257;28;20653;-49
2023/10/04 00:12:30;;;;;;;17.90;3.40;;;;;;;11.58;100.00;101507.81;4943452;28;20214;-49
2023/10/04 00:14:56;;;;;;;12.48;2.92;;;;;;;11.55;100.00;101509.66;4950142;28;20245;-49
2023/10/04 00:17:22;;;;;;;17.30;3.10;;;;;;;11.57;100.00;101495.28;4947976;29;20515;-50
2023/10/04 00:19:48;;;;;;;19.05;3.63;;;;;;;11.57;100.00;101512.28;4963476;28;20186;-49
2023/10/04 00:22:13;;;;;;;12.60;2.55;;;;;;;11.55;100.00;101504.28;4960731;28;20213;-51
2023/10/04 00:24:39;;;;;;;16.52;2.60;;;;;;;11.62;100.00;101515.69;4945982;29;20226;-51
2023/10/04 00:27:05;;;;;;;16.00;2.85;;;;;;;11.58;100.00;101508.66;4947012;29;20200;-50
2023/10/04 00:29:30;;;;;;;15.77;3.20;;;;;;;11.58;100.00;101518.53;4945378;29;20635;-49
2023/10/04 00:31:56;;;;;;;14.43;3.03;;;;;;;11.59;100.00;101514.91;4948388;28;20214;-48
2023/10/04 00:34:22;;;;;;;14.25;2.67;;;;;;;11.55;100.00;101524.88;4944653;28;20187;-49
2023/10/04 00:36:48;;;;;;;14.02;3.15;;;;;;;11.64;100.00;101521.91;4942031;29;20545;-49
2023/10/04 00:39:14;;;;;;;15.10;3.15;;;;;;;11.65;100.00;101528.13;4960557;28;20299;-51
2023/10/04 00:41:40;;;;;;;18.77;2.90;;;;;;;11.66;100.00;101524.53;4946197;28;20191;-49
2023/10/04 00:44:07;;;;;;;18.33;3.63;;;;;;;11.64;100.00;101531.75;4951285;28;20210;-50
2023/10/04 00:46:35;;;;;;;15.77;3.13;;;;;;;11.66;100.00;101527.22;4942671;29;20195;-51
2023/10/04 00:49:02;;;;;;;16.80;3.33;;;;;;;11.67;100.00;101537.03;4949626;29;20218;-49
2023/10/04 00:51:35;;;;;;;15.35;2.38;;;;;;;11.64;100.00;101538.00;4946848;29;20246;-49
2023/10/04 00:54:12;;;;;;;19.30;2.85;;;;;;;11.64;100.00;101537.13;4947753;28;20691;-48
2023/10/04 00:56:38;;;;;;;14.55;2.78;;;;;;;11.63;100.00;101546.09;4948041;28;20187;-50
2023/10/04 00:59:04;;;;;;;9.85;2.03;;;;;;;11.68;100.00;101544.16;4944533;29;20205;-49
2023/10/04 01:01:31;;;;;;;10.20;2.25;;;;;;;11.68;100.00;101547.72;4944789;29;20171;-49
2023/10/04 01:03:57;;;;;;;16.48;2.90;;;;;;;11.72;100.00;101551.22;4954132;28;20214;-49
2023/10/04 01:06:22;;;;;;;16.02;2.53;;;;;;;11.71;100.00;101555.66;4946768;28;20195;-49
2023/10/04 01:08:48;;;;;;;10.20;2.58;;;;;;;11.75;100.00;101556.47;4942212;29;20618;-49
2023/10/04 01:11:14;;;;;;;14.77;2.22;;;;;;;11.75;100.00;101551.09;4946484;29;20179;-49
2023/10/04 01:13:40;;;;;;;17.00;3.17;;;;;;;11.73;100.00;101559.19;4963330;28;20190;-50
2023/10/04 01:16:09;;;;;;;9.07;2.08;;;;;;;11.70;100.00;101556.63;4945205;28;20198;-48
2023/10/04 01:18:35;;;;;;;13.90;2.67;;;;;;;11.67;100.00;101561.19;4955036;28;21094;-49
2023/10/04 01:21:01;;;;;;;9.18;2.40;;;;;;;11.70;100.00;101558.44;4945918;28;20614;-50
2023/10/04 01:23:28;;;;;;;12.80;2.40;;;;;;;11.70;100.00;101561.09;4946428;28;20195;-49
2023/10/04 01:25:54;;;;;;;11.77;2.33;;;;;;;11.70;100.00;101558.44;4941772;29;20534;-49
2023/10/04 01:28:30;;;;;;;10.13;2.20;;;;;;;11.71;100.00;101569.09;5023485;28;20567;-47
2023/10/04 01:30:59;;;;;;;17.13;2.40;;;;;;;11.67;100.00;101562.06;5025924;28;20561;-49
2023/10/04 01:33:25;;;;;;;8.82;2.58;;;;;;;11.64;100.00;101563.97;5035139;28;20393;-49
2023/10/04 01:35:53;;;;;;;15.05;2.20;;;;;;;11.64;100.00;101558.59;5025824;28;20180;-48
2023/10/04 01:38:24;;;;;;;12.80;2.15;;;;;;;11.67;100.00;101571.91;5023332;28;20634;-49
2023/10/04 01:40:54;;;;;;;11.27;2.60;;;;;;;11.65;100.00;101566.59;5025077;28;20192;-47
2023/10/04 01:43:21;;;;;;;12.23;2.05;;;;;;;11.73;100.00;101577.09;5016393;28;20211;-47
2023/10/04 01:45:50;;;;;;;14.05;2.28;;;;;;;11.72;100.00;101570.88;5024434;28;20291;-49
2023/10/04 01:48:16;;;;;;;14.80;2.20;;;;;;;11.74;100.00;101570.78;5023759;28;20237;-48
2023/10/04 01:50:44;;;;;;;16.40;2.55;;;;;;;11.74;100.00;101565.44;5024620;28;20635;-47
2023/10/04 01:53:10;;;;;;;15.45;2.35;;;;;;;11.78;100.00;101583.19;5022514;28;20204;-50
2023/10/04 01:55:37;;;;;;;17.80;2.75;;;;;;;11.79;100.00;101576.91;5026262;28;20188;-48
2023/10/04 01:58:04;;;;;;;11.25;2.10;;;;;;;11.79;100.00;101576.91;5022906;28;20234;-48
2023/10/04 02:00:30;;;;;;;16.77;2.67;;;;;;;11.74;100.00;101573.47;5022516;28;20184;-47
2023/10/04 02:02:56;;;;;;;12.50;1.90;;;;;;;11.68;100.00;101569.19;5024280;28;20278;-46
2023/10/04 02:05:28;;;;;;;9.27;2.65;;;;;;;11.67;100.00;101571.91;5011944;23;20332;-48
2023/10/04 02:07:56;;;;;;;12.73;2.78;;;;;;;11.68;100.00;101582.63;4983250;28;20307;-48
2023/10/04 02:10:22;;;;;;;16.05;2.90;;;;;;;11.68;100.00;101577.25;4974591;28;20688;-49
2023/10/04 02:12:50;;;;;;;15.38;2.53;;;;;;;11.66;100.00;101576.41;4988402;28;20240;-48
2023/10/04 02:15:19;;;;;;;18.13;2.60;;;;;;;11.67;100.00;101578.16;4968145;28;20367;-48
2023/10/04 02:17:45;;;;;;;15.57;2.38;;;;;;;11.70;100.00;101585.28;4967895;28;20213;-48
2023/10/04 02:20:28;;;;;;;12.95;2.00;;;;;;;11.72;100.00;101575.38;4985265;28;20217;-48
2023/10/04 02:22:54;;;;;;;12.38;2.35;;;;;;;11.72;100.00;101576.25;4977221;28;20280;-48
2023/10/04 02:25:20;;;;;;;12.40;2.50;;;;;;;11.74;100.00;101586.91;4966199;28;20297;-48
2023/10/04 02:27:49;;;;;;;19.98;2.30;;;;;;;11.77;100.00;101583.28;4986753;28;20288;-47
2023/10/04 02:30:26;;;;;;;15.50;2.83;;;;;;;11.77;100.00;101591.31;4986148;28;20611;-48
2023/10/04 02:32:53;;;;;;;21.05;2.55;;;;;;;11.76;100.00;101598.47;4961938;28;20300;-48
2023/10/04 02:35:34;;;;;;;16.17;2.15;;;;;;;11.79;100.00;101589.47;4969533;28;20240;-48
2023/10/04 02:38:00;;;;;;;19.63;2.92;;;;;;;11.79;100.00;101582.28;4982393;28;20177;-47
2023/10/04 02:40:27;;;;;;;14.85;2.15;;;;;;;11.80;100.00;101581.34;4955108;28;20244;-48
2023/10/04 02:42:57;;;;;;;14.30;2.33;;;;;;;11.79;100.00;101581.41;4952218;28;20661;-48
2023/10/04 02:45:24;;;;;;;13.65;1.95;;;;;;;11.83;100.00;101592.00;4973476;28;20194;-48
2023/10/04 02:47:52;;;;;;;13.95;2.17;;;;;;;11.82;100.00;101592.06;4955662;28;20190;-48
2023/10/04 02:50:19;;;;;;;15.90;2.70;;;;;;;11.82;100.00;101590.25;4960316;28;20193;-47
2023/10/04 02:52:50;;;;;;;15.95;2.58;;;;;;;11.88;100.00;101590.09;4965212;28;20275;-46
2023/10/04 02:55:17;;;;;;;19.10;3.17;;;;;;;11.85;100.00;101600.91;4955178;28;20201;-47
2023/10/04 02:57:46;;;;;;;16.70;3.80;;;;;;;11.94;100.00;101592.59;4971583;28;20185;-47
2023/10/04 03:00:16;;;;;;;17.70;2.75;;;;;;;11.89;100.00;101601.69;4954903;28;20186;-47
2023/10/04 03:02:53;;;;;;;17.90;2.70;;;;;;;11.90;100.00;101587.34;4955767;28;20225;-46
2023/10/04 03:05:21;;;;;;;17.58;3.05;;;;;;;11.90;100.00;101590.91;4955369;28;20399;-47
2023/10/04 03:07:50;;;;;;;13.65;2.60;;;;;;;12.01;100.00;101584.34;4955505;28;20217;-47
2023/10/04 03:10:24;;;;;;;12.07;2.20;;;;;;;11.92;100.00;101586.38;4955305;28;20797;-47
2023/10/04 03:12:54;;;;;;;8.25;1.80;;;;;;;11.92;100.00;101594.44;4956356;28;20228;-47
2023/10/04 03:15:23;;;;;;;16.75;2.60;;;;;;;11.93;100.00;101584.56;4973721;28;20190;-47
2023/10/04 03:17:52;;;;;;;13.77;2.70;;;;;;;11.98;100.00;101585.28;4955631;28;20545;-47
2023/10/04 03:20:23;;;;;;;14.90;2.53;;;;;;;12.00;100.00;101586.13;4952223;28;20542;-47
2023/10/04 03:22:54;;;;;;;22.60;3.60;;;;;;;11.95;100.00;101586.28;4955473;28;20215;-48
2023/10/04 03:25:20;;;;;;;12.02;2.95;;;;;;;12.01;100.00;101589.72;4955924;28;20273;-48
2023/10/04 03:27:47;;;;;;;14.35;2.83;;;;;;;11.91;100.00;101584.59;4954641;28;20202;-47
2023/10/04 03:30:14;;;;;;;12.55;3.00;;;;;;;11.94;100.00;101592.59;4954295;28;20517;-47
2023/10/04 03:32:49;;;;;;;13.63;2.70;;;;;;;11.88;100.00;101589.22;4970278;28;20213;-46
2023/10/04 03:35:15;;;;;;;15.20;2.30;;;;;;;11.90;100.00;101582.00;4947592;28;20181;-47
2023/10/04 03:37:58;;;;;;;12.77;2.42;;;;;;;11.88;100.00;101598.13;4954499;28;20597;-48
2023/10/04 03:40:24;;;;;;;18.92;2.42;;;;;;;11.85;100.00;101595.53;4961223;28;20283;-48
2023/10/04 03:42:50;;;;;;;10.90;2.25;;;;;;;11.89;100.00;101597.19;4958583;28;20213;-48
2023/10/04 03:45:18;;;;;;;10.90;2.35;;;;;;;11.85;100.00;101591.94;4955974;28;20182;-49
2023/10/04 03:47:50;;;;;;;11.98;2.92;;;;;;;11.85;100.00;101600.91;4969982;28;20222;-46
2023/10/04 03:50:17;;;;;;;10.30;2.80;;;;;;;11.80;100.00;101591.22;4953321;28;20194;-47
2023/10/04 03:52:44;;;;;;;13.27;2.58;;;;;;;11.71;100.00;101593.25;4954236;28;20202;-47
2023/10/04 03:55:11;;;;;;;16.88;3.03;;;;;;;11.72;100.00;101600.41;4954300;28;20186;-47
2023/10/04 03:57:42;;;;;;;12.65;2.55;;;;;;;11.78;100.00;101588.56;4954045;28;20178;-48
2023/10/04 04:00:13;;;;;;;16.33;2.47;;;;;;;11.70;100.00;101602.25;4954154;28;20233;-46
2023/10/04 04:02:39;;;;;;;12.00;2.55;;;;;;;11.71;100.00;101608.47;4971628;28;20248;-47
2023/10/04 04:05:09;;;;;;;17.27;3.28;;;;;;;11.71;100.00;101604.00;4962812;28;20672;-47
2023/10/04 04:07:36;;;;;;;12.13;2.58;;;;;;;11.82;100.00;101610.84;4972069;28;20237;-47
2023/10/04 04:10:03;;;;;;;12.98;3.05;;;;;;;11.79;100.00;101603.78;4953956;28;20184;-47
2023/10/04 04:12:29;;;;;;;11.32;2.45;;;;;;;11.79;100.00;101610.94;4970254;28;20332;-48
2023/10/04 04:14:55;;;;;;;13.90;2.80;;;;;;;11.80;100.00;101608.19;4970762;28;20258;-47
2023/10/04 04:17:25;;;;;;;14.73;2.75;;;;;;;11.82;100.00;101606.34;4955290;28;20184;-47
2023/10/04 04:19:51;;;;;;;11.60;2.55;;;;;;;11.78;100.00;101596.63;4969955;28;20633;-46
2023/10/04 04:22:23;;;;;;;13.48;3.13;;;;;;;11.79;100.00;101610.94;4954133;28;20249;-45
2023/10/04 04:24:50;;;;;;;17.45;2.78;;;;;;;11.77;100.00;101618.19;4958874;28;20291;-47
2023/10/04 04:27:22;;;;;;;13.35;3.20;;;;;;;11.79;100.00;101617.19;4956197;28;20218;-47
2023/10/04 04:29:56;;;;;;;11.35;2.50;;;;;;;11.78;100.00;101625.28;4969493;28;20197;-47
2023/10/04 04:32:29;;;;;;;12.35;2.67;;;;;;;11.79;100.00;101627.94;4968826;28;20300;-47
2023/10/04 04:34:55;;;;;;;15.18;2.70;;;;;;;11.74;100.00;101617.34;4964610;28;20252;-46
2023/10/04 04:37:26;;;;;;;16.83;3.35;;;;;;;11.75;100.00;101628.94;4954827;28;20192;-47
2023/10/04 04:39:52;;;;;;;11.40;2.50;;;;;;;11.68;100.00;101630.94;4953406;28;20178;-46
2023/10/04 04:42:22;;;;;;;11.15;2.60;;;;;;;11.71;100.00;101624.59;4959111;28;20209;-47
2023/10/04 04:44:48;;;;;;;11.93;2.92;;;;;;;11.63;100.00;101624.84;4953399;28;20186;-47
2023/10/04 04:47:16;;;;;;;15.05;2.97;;;;;;;11.66;100.00;101627.41;4959724;28;20261;-48
2023/10/04 04:49:42;;;;;;;11.93;3.38;;;;;;;11.59;100.00;101635.69;4953128;28;20220;-46
2023/10/04 04:52:09;;;;;;;11.88;3.22;;;;;;;11.49;100.00;101635.97;4972501;28;20256;-47
2023/10/04 04:54:35;;;;;;;14.05;3.50;;;;;;;11.47;100.00;101639.63;4949866;28;20182;-48
2023/10/04 04:57:02;;;;;;;15.30;3.30;;;;;;;11.43;100.00;101651.34;4970295;28;20565;-47
2023/10/04 04:59:28;;;;;;;16.08;3.63;;;;;;;11.44;100.00;101655.81;4954831;28;20189;-46
2023/10/04 05:01:55;;;;;;;12.45;3.05;;;;;;;11.48;100.00;101654.81;4951663;28;20194;-47
2023/10/04 05:04:22;;;;;;;13.18;3.17;;;;;;;11.35;100.00;101651.59;4965080;28;20549;-47
2023/10/04 05:06:49;;;;;;;10.27;3.35;;;;;;;11.35;100.00;101654.28;4970393;28;20210;-46
2023/10/04 05:09:17;;;;;;;8.68;2.92;;;;;;;11.33;100.00;101656.13;4970090;28;20225;-47
2023/10/04 05:11:44;;;;;;;12.93;3.72;;;;;;;11.31;100.00;101661.53;4971235;28;20189;-47
2023/10/04 05:14:11;;;;;;;9.07;3.13;;;;;;;11.30;100.00;101670.50;4971635;28;20201;-47
2023/10/04 05:16:37;;;;;;;11.68;3.40;;;;;;;11.31;100.00;101660.66;4970675;28;20276;-47
2023/10/04 05:19:09;;;;;;;12.70;3.08;;;;;;;11.26;100.00;101667.91;4969868;28;20189;-49
2023/10/04 05:21:34;;;;;;;11.85;2.75;;;;;;;11.31;100.00;101677.63;4970935;28;20185;-46
2023/10/04 05:24:00;;;;;;;13.35;3.72;;;;;;;11.24;100.00;101680.50;4971594;28;20628;-47
2023/10/04 05:26:27;;;;;;;13.80;3.05;;;;;;;11.26;100.00;101684.94;4969912;28;20336;-47
2023/10/04 05:28:52;;;;;;;13.88;3.15;;;;;;;11.23;100.00;101686.78;4970419;28;20204;-47
2023/10/04 05:31:18;;;;;;;11.10;3.35;;;;;;;11.25;100.00;101690.31;4970825;28;20182;-47
2023/10/04 05:33:43;;;;;;;9.85;3.30;;;;;;;11.27;100.00;101699.22;4970578;28;20584;-48
2023/10/04 05:36:09;;;;;;;10.60;3.28;;;;;;;11.23;100.00;101705.56;4970238;28;20194;-48
2023/10/04 05:38:35;;;;;;;11.13;3.17;;;;;;;11.28;100.00;101700.97;4955522;28;20221;-47
2023/10/04 05:41:02;;;;;;;8.82;2.95;;;;;;;11.26;100.00;101713.53;4971270;28;20197;-47
2023/10/04 05:43:29;;;;;;;16.60;3.42;;;;;;;11.25;100.00;101706.41;4970469;28;20217;-47
2023/10/04 05:45:55;;;;;;;15.60;3.08;;;;;;;11.31;100.00;101719.66;4970433;28;20672;-47
2023/10/04 05:48:21;;;;;;;17.67;3.47;;;;;;;11.36;100.00;101720.41;4969265;28;20213;-45
2023/10/04 05:50:50;;;;;;;10.82;2.70;;;;;;;11.43;100.00;101723.81;4969086;28;20637;-46
2023/10/04 05:53:19;;;;;;;12.98;3.38;;;;;;;11.46;100.00;101721.06;4970335;28;20213;-47
2023/10/04 05:55:46;;;;;;;14.80;3.47;;;;;;;11.46;100.00;101724.63;4969122;28;20181;-47
2023/10/04 05:58:12;;;;;;;15.18;3.53;;;;;;;11.53;100.00;101720.84;4969589;28;20186;-47
2023/10/04 06:00:40;;;;;;;10.63;3.08;;;;;;;11.54;100.00;101714.56;4952061;28;20221;-47
2023/10/04 06:03:11;;;;;;;7.75;2.58;;;;;;;11.57;100.00;101732.38;4970360;28;20216;-48
2023/10/04 06:05:38;;;;;;;13.75;3.45;;;;;;;11.55;100.00;101736.91;4968895;28;20224;-47
2023/10/04 06:08:20;;;;;;;13.50;3.55;;;;;;;11.59;100.00;101733.22;4970069;28;20210;-47
2023/10/04 06:10:55;;;;;;;14.65;2.80;;;;;;;11.66;100.00;101728.56;4969335;28;20664;-45
2023/10/04 06:13:25;;;;;;;17.10;3.60;;;;;;;11.65;100.00;101732.16;4964449;28;20221;-47
2023/10/04 06:15:55;;;;;;;13.93;3.53;;;;;;;11.72;100.00;101744.50;4972642;28;20526;-48
2023/10/04 06:18:26;;;;;;;13.98;3.03;;;;;;;11.71;100.00;101745.41;4970806;28;20559;-47
2023/10/04 06:20:51;;;;;;;12.43;3.58;;;;;;;11.73;100.00;101743.56;4971020;28;20274;-47
2023/10/04 06:23:17;;;;;;;13.38;3.33;;;;;;;11.79;100.00;101754.13;4971611;28;20716;-47
2023/10/04 06:25:44;;;;;;;13.90;3.53;;;;;;;11.77;100.00;101753.28;4973213;28;20182;-47
2023/10/04 06:28:10;;;;;;;10.93;2.72;;;;;;;11.82;100.00;101762.06;4973081;28;20202;-50
2023/10/04 06:30:36;;;;;;;13.70;3.33;;;;;;;11.80;100.00;101761.25;4972043;28;20734;-48
2023/10/04 06:33:04;;;;;;;10.65;3.28;;;;;;;11.82;100.00;101762.06;4973340;28;20209;-48
2023/10/04 06:35:32;;;;;;;11.90;2.70;;;;;;;11.85;100.00;101783.50;4972429;28;20644;-48
2023/10/04 06:37:57;;;;;;;9.73;2.83;;;;;;;11.89;100.00;101774.44;4973237;28;20178;-48
2023/10/04 06:40:24;;;;;;;14.15;3.67;;;;;;;11.88;100.00;101772.69;4972977;28;20216;-48
2023/10/04 06:42:52;;;;;;;17.73;3.30;;;;;;;11.88;100.00;101775.38;4972837;28;20214;-49
2023/10/04 06:45:26;;;;;;;10.32;3.38;;;;;;;11.87;100.00;101786.09;4971904;28;20197;-48
2023/10/04 06:47:54;;;;;;;13.02;2.70;;;;;;;11.88;100.00;101774.50;4974538;28;20212;-44
2023/10/04 06:50:22;;;;;;;14.32;3.85;;;;;;;11.87;100.00;101783.44;4977674;28;20255;-42
2023/10/04 06:52:50;;;;;;;13.20;3.90;;;;;;;11.95;100.00;101779.63;4973212;28;20214;-44
2023/10/04 06:55:19;;;;;;;13.52;3.65;;;;;;;11.97;100.00;101786.78;4973594;28;20268;-43
2023/10/04 06:57:45;;;;;;;13.25;4.03;;;;;;;11.92;100.00;101801.22;4973543;28;20178;-45
2023/10/04 07:00:14;;;;;;;14.50;3.38;;;;;;;12.08;100.00;101796.28;4974170;28;20193;-45
2023/10/04 07:02:53;;;;;;;12.75;2.92;;;;;;;12.14;100.00;101800.59;4979376;28;20214;-44
2023/10/04 07:05:24;;;;;;;12.70;2.83;;;;;;;12.17;100.00;101805.88;4973901;28;20212;-45
2023/10/04 07:07:54;;;;;;;12.98;3.17;;;;;;;12.17;100.00;101803.19;4974425;28;20711;-44
2023/10/04 07:10:21;;;;;;;7.93;2.42;;;;;;;12.10;100.00;101791.75;4974467;28;20268;-45
2023/10/04 07:12:51;;;;;;;10.15;2.60;;;;;;;12.07;100.00;101807.97;4973755;28;20554;-45
2023/10/04 07:15:18;;;;;;;10.88;2.63;;;;;;;12.07;100.00;101817.81;4975544;28;20182;-44
2023/10/04 07:17:45;;;;;;;13.32;2.85;;;;;;;12.05;100.00;101817.00;4973879;28;20201;-42
2023/10/04 07:20:15;;;;;;;10.90;2.72;;;;;;;12.31;100.00;101809.06;4973388;28;20212;-43
2023/10/04 07:22:43;;;;;;;8.23;2.55;;;;;;;12.42;100.00;101818.56;4973130;28;20228;-43
2023/10/04 07:25:13;;;;;;;8.82;2.97;;;;;;;12.68;100.00;101820.47;4974141;28;20190;-45
2023/10/04 07:27:43;;;;;;;7.03;2.65;;;;;;;13.07;100.00;101822.81;4975571;28;20220;-44
2023/10/04 07:30:12;;;;;;;13.70;3.25;;;;;;;13.13;100.00;101836.94;4972702;28;20186;-43
2023/10/04 07:32:45;;;;;;;13.80;3.40;;;;;;;13.03;100.00;101829.22;4973394;28;20718;-44
2023/10/04 07:35:13;;;;;;;11.70;2.78;;;;;;;13.18;100.00;101831.41;4972941;28;20400;-41
2023/10/04 07:37:40;;;;;;;11.00;2.65;;;;;;;13.44;100.00;101833.25;4973340;28;20664;-44
2023/10/04 07:40:11;;;;;;;9.05;2.67;;;;;;;13.51;100.00;101826.75;4972048;28;20170;-42
2023/10/04 07:42:38;;;;;;;9.25;2.92;;;;;;;13.47;100.00;101838.56;4974153;28;20234;-45
2023/10/04 07:45:05;;;;;;;15.75;3.13;;;;;;;13.42;100.00;101839.63;4972347;28;20264;-43
2023/10/04 07:47:31;;;;;;;8.98;2.55;;;;;;;13.60;100.00;101844.41;4973857;28;20222;-42
2023/10/04 07:49:56;;;;;;;11.35;2.90;;;;;;;13.83;100.00;101843.59;4974490;28;20189;-44
2023/10/04 07:52:22;;;;;;;10.27;2.55;;;;;;;14.01;100.00;101837.56;4972686;28;20206;-41
2023/10/04 07:54:47;;;;;;;14.68;2.85;;;;;;;13.44;100.00;101846.72;4970470;28;20244;-43
2023/10/04 07:57:13;;;;;;;13.40;3.10;;;;;;;13.27;100.00;101855.34;4975605;28;20177;-43
2023/10/04 07:59:41;;;;;;;8.57;2.72;;;;;;;13.46;100.00;101852.06;4974369;28;20190;-44
2023/10/04 08:02:06;;;;;;;9.52;2.53;;;;;;;13.78;100.00;101856.34;4973380;28;20252;-43
2023/10/04 08:04:33;;;;;;;9.30;2.92;;;;;;;13.93;100.00;101855.81;4989488;23;20221;-49
2023/10/04 08:06:59;;;;;;;10.80;2.78;;;;;;;14.01;100.00;101845.63;4983691;28;20468;-49
2023/10/04 08:09:24;;;;;;;13.52;3.25;;;;;;;14.36;100.00;101856.91;4985436;28;20189;-48
2023/10/04 08:11:52;;;;;;;10.05;3.05;;;;;;;14.39;100.00;101854.09;4986723;28;20221;-50
2023/10/04 08:14:20;;;;;;;12.25;2.60;;;;;;;14.16;100.00;101856.78;4978388;28;20234;-48
2023/10/04 08:16:49;;;;;;;14.10;3.05;;;;;;;14.53;100.00;101858.09;4984612;28;20190;-47
2023/10/04 08:19:15;;;;;;;13.18;2.78;;;;;;;14.58;100.00;101853.44;4968941;28;20186;-48
2023/10/04 08:21:41;;;;;;;11.68;3.17;;;;;;;14.59;100.00;101849.81;4985819;28;20200;-49
2023/10/04 08:24:07;;;;;;;14.85;2.72;;;;;;;14.70;100.00;101860.19;4983321;28;20201;-49
2023/10/04 08:26:33;;;;;;;9.23;2.60;;;;;;;14.82;100.00;101857.88;4981324;28;20193;-49
2023/10/04 08:28:59;;;;;;;11.70;2.88;;;;;;;14.99;100.00;101853.63;4983769;28;20595;-49
2023/10/04 08:31:25;;;;;;;13.20;2.55;;;;;;;14.92;100.00;101861.09;4985598;28;20193;-48
2023/10/04 08:33:50;;;;;;;14.93;3.65;;;;;;;14.80;100.00;101861.56;4980892;28;20279;-49
2023/10/04 08:36:17;;;;;;;12.70;3.20;;;;;;;15.04;100.00;101848.91;4986534;28;20185;-48
2023/10/04 08:38:45;;;;;;;10.40;3.00;;;;;;;15.08;100.00;101845.16;4984057;28;20308;-50
2023/10/04 08:41:11;;;;;;;10.25;2.75;;;;;;;15.51;100.00;101842.50;4985179;28;20198;-49
2023/10/04 08:43:37;;;;;;;10.88;2.70;;;;;;;15.63;100.00;101850.94;4985984;28;20544;-46
2023/10/04 08:46:04;;;;;;;14.57;2.45;;;;;;;15.56;100.00;101843.16;4980294;28;20178;-48
2023/10/04 08:48:30;;;;;;;13.10;2.95;;;;;;;15.78;100.00;101852.13;4987497;28;20619;-44
2023/10/04 08:51:28;;;;;;;9.52;2.40;;;;;;;15.81;100.00;101860.09;4985988;28;20571;-49
2023/10/04 08:54:24;;;;;;;11.35;2.55;;;;;;;15.84;100.00;101848.28;4985756;28;20302;-43
2023/10/04 08:57:01;;;;;;;10.13;2.63;;;;;;;16.03;100.00;101845.66;4978295;28;20657;-45
2023/10/04 08:59:27;;;;;;;15.85;2.75;;;;;;;15.99;100.00;101838.63;4981967;28;20267;-43
2023/10/04 09:01:54;;;;;;;10.38;3.08;;;;;;;16.08;99.76;101843.59;4983321;28;20189;-44
2023/10/04 09:04:24;;;;;;;12.00;2.60;;;;;;;15.81;98.71;101843.03;4982852;28;20652;-43
2023/10/04 09:06:51;;;;;;;12.48;2.63;;;;;;;16.04;97.62;101842.84;4981634;28;20296;-44
2023/10/04 09:09:18;;;;;;;18.70;3.03;;;;;;;16.03;97.37;101840.25;4980790;28;20332;-45
2023/10/04 09:11:45;;;;;;;13.98;3.28;;;;;;;15.75;95.88;101837.88;4984462;28;20485;-42
2023/10/04 09:14:13;;;;;;;9.63;3.75;;;;;;;15.78;95.67;101838.59;4985447;28;20304;-44
2023/10/04 09:16:39;;;;;;;12.32;2.60;;;;;;;16.04;95.45;101833.88;4984588;28;20529;-45
2023/10/04 09:19:18;;;;;;;10.55;2.90;;;;;;;15.94;95.34;101833.41;4981446;28;20182;-43
2023/10/04 09:21:45;;;;;;;15.00;2.63;;;;;;;16.10;95.40;101843.53;4983373;28;20185;-44
2023/10/04 09:24:12;;;;;;;13.52;3.28;;;;;;;16.33;95.13;101829.81;4984973;28;20193;-43
2023/10/04 09:26:42;;;;;;;10.30;2.80;;;;;;;16.41;94.34;101829.47;4982713;28;20694;-44
2023/10/04 09:29:08;;;;;;;14.25;2.83;;;;;;;16.52;92.70;101831.69;4982088;28;20194;-44
2023/10/04 09:31:46;;;;;;;10.32;2.63;;;;;;;16.24;93.67;101828.44;4980183;28;20604;-44
2023/10/04 09:34:13;;;;;;;17.65;3.08;;;;;;;16.32;92.72;101827.22;4980708;28;20208;-44
2023/10/04 09:36:40;;;;;;;8.43;2.67;;;;;;;16.37;92.12;101825.16;4980012;28;20651;-44
2023/10/04 09:39:08;;;;;;;13.23;2.58;;;;;;;16.38;91.49;101826.94;4970437;28;20185;-43
2023/10/04 09:41:41;;;;;;;16.52;2.97;;;;;;;16.73;91.30;101830.69;4979171;28;20268;-44
2023/10/04 09:44:34;;;;;;;17.98;2.85;;;;;;;16.80;89.64;101821.31;4980758;28;20218;-43
2023/10/04 09:47:01;;;;;;;18.23;3.22;;;;;;;16.88;89.36;101819.13;4981235;28;20209;-45
2023/10/04 09:49:31;;;;;;;13.18;2.90;;;;;;;16.77;88.80;101818.75;4984900;28;20193;-46
2023/10/04 09:52:01;;;;;;;10.75;2.85;;;;;;;16.73;86.37;101809.03;4984810;28;20534;-46
2023/10/04 09:54:33;;;;;;;12.77;2.58;;;;;;;16.59;86.79;101825.03;4988615;28;20181;-45
2023/10/04 09:57:01;;;;;;;14.77;3.13;;;;;;;16.39;86.43;101825.97;4985263;28;20233;-45
2023/10/04 09:59:28;;;;;;;9.88;2.92;;;;;;;16.30;86.97;101829.97;4982461;28;20190;-47
2023/10/04 10:01:56;;;;;;;13.27;2.78;;;;;;;15.99;86.87;101836.78;4985749;28;20189;-47
2023/10/04 10:04:29;;;;;;;9.38;2.40;;;;;;;16.13;86.02;101838.00;4982704;28;20373;-46
2023/10/04 10:07:15;;;;;;;18.10;4.00;;;;;;;15.68;85.24;101818.31;4983298;28;20300;-47
2023/10/04 10:10:10;;;;;;;15.98;3.78;;;;;;;15.42;84.50;101814.06;4986179;28;20197;-48
2023/10/04 10:12:36;;;;;;;12.80;3.03;;;;;;;15.19;84.82;101813.19;4988662;28;20201;-47
2023/10/04 10:15:04;;;;;;;17.53;4.43;;;;;;;15.29;84.93;101829.03;4980704;28;20440;-48
2023/10/04 10:17:33;;;;;;;14.65;3.50;;;;;;;15.68;85.00;101830.94;4982450;28;20591;-48
2023/10/04 10:19:59;;;;;;;10.57;3.38;;;;;;;16.06;84.10;101824.75;4979622;28;20849;-48
2023/10/04 10:22:25;;;;;;;20.15;3.65;;;;;;;16.25;83.38;101832.03;4983285;28;20502;-48
2023/10/04 10:24:56;;;;;;;16.73;3.33;;;;;;;16.47;82.84;101823.78;4982382;28;20189;-46
2023/10/04 10:27:28;;;;;;;10.60;2.85;;;;;;;16.76;82.47;101816.97;4982212;28;20209;-44
2023/10/04 10:29:59;;;;;;;8.13;2.58;;;;;;;16.72;81.61;101800.97;4983071;28;20186;-47
2023/10/04 10:32:25;;;;;;;19.83;3.67;;;;;;;16.84;80.99;101814.81;4981625;28;20551;-45
2023/10/04 10:34:57;;;;;;;9.82;3.10;;;;;;;16.46;80.37;101817.50;4984928;28;20180;-47
2023/10/04 10:37:24;;;;;;;13.68;2.78;;;;;;;16.12;80.29;101804.69;4980650;28;20182;-45
2023/10/04 10:39:52;;;;;;;18.83;3.75;;;;;;;15.96;80.00;101803.59;4980424;28;20647;-47
2023/10/04 10:42:19;;;;;;;12.80;3.17;;;;;;;15.89;80.21;101794.88;4977789;28;20198;-45
2023/10/04 10:44:46;;;;;;;14.68;3.83;;;;;;;16.54;78.81;101794.63;4984215;28;20201;-47
2023/10/04 10:47:25;;;;;;;20.45;4.70;;;;;;;16.89;78.86;101793.81;4982208;28;20307;-45
2023/10/04 10:49:55;;;;;;;14.63;3.47;;;;;;;17.18;78.80;101793.31;4972880;28;20203;-46
2023/10/04 10:52:33;;;;;;;10.77;2.95;;;;;;;17.16;77.50;101808.75;4969357;28;20671;-47
2023/10/04 10:55:06;;;;;;;16.95;4.03;;;;;;;16.53;76.51;101780.22;4980274;28;20181;-47
2023/10/04 10:57:36;;;;;;;13.25;3.33;;;;;;;16.43;76.06;101792.41;4979535;28;20661;-46
2023/10/04 11:02:44;;;;;;;14.68;3.25;;;;;;;16.51;75.03;101789.34;4978768;28;20267;-45
2023/10/04 11:05:12;;;;;;;14.25;3.40;;;;;;;16.23;73.48;101787.97;4976291;28;20799;-45
2023/10/04 11:07:38;;;;;;;13.70;3.78;;;;;;;16.14;74.03;101796.50;4980830;28;20259;-45
2023/10/04 11:10:07;;;;;;;17.05;3.50;;;;;;;16.09;73.37;101790.41;4981805;28;20178;-45
2023/10/04 11:12:39;;;;;;;9.60;3.17;;;;;;;16.33;72.55;101791.09;4984923;28;20220;-47
2023/10/04 11:15:09;;;;;;;13.60;3.55;;;;;;;16.58;72.36;101799.81;4978164;28;20296;-44
2023/10/04 11:17:36;;;;;;;10.07;2.55;;;;;;;16.58;70.97;101766.47;4981235;28;20652;-46
2023/10/04 11:20:09;;;;;;;8.05;3.10;;;;;;;16.65;70.59;101768.78;4977551;28;20272;-46